Time;durP1;ratioP1;P1;durP2;ratioP2;P2;SDS_P1;SDS_P2;PMS_P1;PMS_P2;Temp;Humidity;BMP_temperature;BMP_pressure;BME280_temperature;BME280_humidity;BME280_pressure;Samples;Min_cycle;Max_cycle;Signal;HPM_P1;HPM_P2
2022/01/16 00:00:50;;;;;;;83.72;33.85;;;;;;;3.18;85.85;102467.34;5052947;28;20083;-70
2022/01/16 00:06:00;;;;;;;87.35;32.47;;;;;;;2.86;86.96;102444.59;5047938;28;20511;-71
2022/01/16 00:08:26;;;;;;;80.63;30.25;;;;;;;2.84;86.95;102439.44;5053080;28;20052;-70
2022/01/16 00:10:51;;;;;;;77.22;29.02;;;;;;;2.85;87.53;102443.75;5053307;28;20110;-71
2022/01/16 00:13:17;;;;;;;97.97;32.53;;;;;;;2.83;87.65;102447.56;5053069;28;20516;-69
2022/01/16 00:15:44;;;;;;;93.25;31.67;;;;;;;2.83;87.89;102453.69;5053349;28;20059;-70
2022/01/16 00:18:20;;;;;;;76.07;28.13;;;;;;;2.81;87.83;102460.94;5050780;28;20404;-70
2022/01/16 00:20:45;;;;;;;83.85;31.80;;;;;;;2.71;88.64;102454.78;5052854;28;20024;-70
2022/01/16 00:23:11;;;;;;;85.78;31.38;;;;;;;2.69;88.88;102451.44;5052508;28;20033;-71
2022/01/16 00:25:36;;;;;;;97.82;31.38;;;;;;;2.72;88.59;102456.44;5052114;28;20457;-70
2022/01/16 00:28:02;;;;;;;85.07;31.80;;;;;;;2.66;88.82;102457.84;5050987;28;20123;-70
2022/01/16 00:30:27;;;;;;;86.80;31.98;;;;;;;2.80;88.50;102461.94;5051974;28;20431;-69
2022/01/16 00:32:59;;;;;;;83.22;30.88;;;;;;;2.91;87.89;102458.34;5052060;28;20033;-70
2022/01/16 00:35:24;;;;;;;82.85;28.58;;;;;;;2.94;88.51;102450.09;5053023;28;20536;-70
2022/01/16 00:37:52;;;;;;;92.65;34.90;;;;;;;3.16;87.34;102444.53;5033656;28;20071;-70
2022/01/16 00:40:18;;;;;;;99.05;36.83;;;;;;;3.18;87.49;102447.91;5052126;28;20037;-70
2022/01/16 00:42:43;;;;;;;98.75;34.53;;;;;;;3.23;87.23;102441.19;5052467;28;20520;-69
2022/01/16 00:45:09;;;;;;;102.90;35.85;;;;;;;3.33;86.74;102454.47;5052500;28;20037;-69
2022/01/16 00:47:34;;;;;;;101.20;33.05;;;;;;;3.45;86.02;102454.22;5053091;28;20082;-71
2022/01/16 00:50:00;;;;;;;95.18;34.92;;;;;;;3.45;86.39;102448.91;5050242;28;20036;-70
2022/01/16 00:52:25;;;;;;;91.47;31.42;;;;;;;3.36;86.80;102436.44;5065610;28;20077;-70
2022/01/16 00:54:51;;;;;;;100.90;33.97;;;;;;;3.30;86.74;102423.69;5072639;28;20062;-71
2022/01/16 00:57:16;;;;;;;104.70;35.88;;;;;;;3.38;86.60;102418.53;5071927;28;20033;-70
2022/01/16 00:59:41;;;;;;;92.63;32.30;;;;;;;3.09;87.42;102424.81;5072853;28;20024;-70
2022/01/16 01:02:07;;;;;;;98.80;31.85;;;;;;;3.09;87.26;102419.50;5072790;28;20033;-70
2022/01/16 01:04:32;;;;;;;93.55;33.42;;;;;;;3.13;87.65;102410.28;5072583;28;20115;-70
2022/01/16 01:06:58;;;;;;;92.82;33.28;;;;;;;3.31;86.58;102397.97;5072587;28;20037;-70
2022/01/16 01:09:24;;;;;;;94.65;33.95;;;;;;;3.44;86.34;102402.03;5072101;28;20046;-70
2022/01/16 01:11:50;;;;;;;92.53;32.72;;;;;;;3.40;86.20;102394.50;5072849;28;20034;-69
2022/01/16 01:19:20;;;;;;;88.00;30.02;;;;;;;3.76;85.42;102415.00;5073083;28;20070;-70
2022/01/16 01:21:45;;;;;;;95.35;31.52;;;;;;;3.67;84.87;102405.25;5072348;28;20039;-70
2022/01/16 01:24:10;;;;;;;97.25;32.97;;;;;;;3.60;85.28;102401.47;5072588;28;20029;-71
2022/01/16 01:26:45;;;;;;;102.55;34.25;;;;;;;3.71;84.46;102411.09;5073336;28;20024;-71
2022/01/16 01:29:15;;;;;;;88.15;31.85;;;;;;;3.98;84.45;102385.44;5072549;28;20469;-71
2022/01/16 01:31:40;;;;;;;100.40;35.67;;;;;;;4.09;84.48;102397.72;5072968;28;20119;-70
2022/01/16 01:34:07;;;;;;;94.82;33.58;;;;;;;4.03;83.74;102412.44;5072462;28;20040;-70
2022/01/16 01:36:32;;;;;;;90.25;33.00;;;;;;;4.15;83.76;102418.41;5072435;28;20040;-70
2022/01/16 01:38:58;;;;;;;98.35;34.38;;;;;;;4.02;85.03;102396.63;5072403;28;20500;-70
2022/01/16 01:41:25;;;;;;;86.75;33.10;;;;;;;4.26;83.46;102386.31;5073101;28;20487;-69
2022/01/16 01:52:03;;;;;;;89.40;31.92;;;;;;;4.07;84.35;102298.63;5067712;28;20078;-70
2022/01/16 01:54:29;;;;;;;91.53;32.70;;;;;;;4.10;84.29;102282.38;5092627;28;20430;-69
2022/01/16 01:56:55;;;;;;;90.47;32.20;;;;;;;4.22;84.49;102297.16;5092677;28;20178;-70
2022/01/16 01:59:20;;;;;;;88.22;29.73;;;;;;;3.97;84.85;102319.09;5092914;28;20016;-70
2022/01/16 02:01:46;;;;;;;92.75;32.10;;;;;;;4.07;84.79;102326.03;5092619;28;20110;-71
2022/01/16 02:04:11;;;;;;;85.13;32.53;;;;;;;4.06;85.39;102337.69;5092516;28;20482;-70
2022/01/16 02:06:36;;;;;;;87.90;32.40;;;;;;;4.17;84.43;102334.81;5092534;28;20032;-70
2022/01/16 02:09:06;;;;;;;97.70;33.88;;;;;;;4.20;84.18;102333.69;5073052;28;20487;-70
2022/01/16 02:11:33;;;;;;;89.73;34.27;;;;;;;4.29;84.12;102338.13;5093033;28;20082;-70
2022/01/16 02:14:22;;;;;;;87.85;32.78;;;;;;;4.39;83.36;102347.75;5092457;28;20061;-69
2022/01/16 02:28:39;;;;;;;84.65;31.85;;;;;;;4.36;84.25;102348.03;5092751;28;20073;-72
2022/01/16 02:36:25;;;;;;;91.57;34.72;;;;;;;3.81;87.26;102361.41;5092328;28;20080;-70
2022/01/16 02:38:51;;;;;;;71.22;27.05;;;;;;;3.93;85.82;102361.09;5092032;28;20093;-70
2022/01/16 02:41:17;;;;;;;89.63;34.92;;;;;;;3.92;86.16;102351.44;5073927;28;20036;-69
2022/01/16 02:43:47;;;;;;;89.90;33.65;;;;;;;3.96;85.92;102360.81;5092072;28;20119;-70
2022/01/16 02:48:46;;;;;;;94.15;35.20;;;;;;;3.97;86.45;102359.81;5092283;28;20047;-70
2022/01/16 02:51:16;;;;;;;99.90;34.85;;;;;;;4.07;86.37;102365.94;5092247;28;20503;-70
2022/01/16 02:53:43;;;;;;;97.53;36.13;;;;;;;4.11;86.18;102353.19;5092463;28;20035;-71
2022/01/16 02:56:08;;;;;;;82.10;29.67;;;;;;;3.84;86.76;102347.81;5092021;28;20475;-70
2022/01/16 02:58:34;;;;;;;93.35;36.10;;;;;;;4.00;85.64;102351.56;5092055;28;20024;-70
2022/01/16 03:00:59;;;;;;;97.13;37.20;;;;;;;3.81;87.20;102343.66;5092012;28;20051;-71
2022/01/16 03:03:25;;;;;;;98.32;33.55;;;;;;;3.85;86.99;102350.38;5086937;28;20032;-70
2022/01/16 03:05:51;;;;;;;101.00;35.22;;;;;;;4.23;85.55;102334.22;5077959;28;20391;-70
2022/01/16 03:08:16;;;;;;;93.68;34.63;;;;;;;4.29;84.58;102338.97;5089027;28;20063;-70
2022/01/16 03:13:07;;;;;;;91.75;34.08;;;;;;;4.60;84.18;102328.03;5082821;28;20071;-70
2022/01/16 03:15:32;;;;;;;98.15;36.85;;;;;;;4.55;84.02;102328.47;5091859;28;20059;-70
2022/01/16 03:23:08;;;;;;;89.35;32.63;;;;;;;4.18;85.28;102335.66;5095422;28;20092;-70
2022/01/16 03:25:33;;;;;;;98.50;34.03;;;;;;;4.35;84.72;102316.25;5095262;28;20036;-70
2022/01/16 03:27:59;;;;;;;97.05;34.17;;;;;;;4.48;84.13;102322.88;5095209;28;20105;-70
2022/01/16 03:30:24;;;;;;;90.00;32.75;;;;;;;4.46;84.29;102316.06;5095219;28;20044;-71
2022/01/16 03:32:50;;;;;;;100.90;37.13;;;;;;;4.56;83.94;102308.81;5095518;28;20150;-69
2022/01/16 03:35:15;;;;;;;92.47;34.60;;;;;;;4.71;84.61;102306.50;5095543;28;20035;-70
2022/01/16 03:37:40;;;;;;;102.07;33.78;;;;;;;4.52;84.56;102296.81;5076643;28;20140;-70
2022/01/16 03:40:10;;;;;;;99.18;36.20;;;;;;;4.65;84.24;102291.13;5094773;28;20036;-69
2022/01/16 03:42:36;;;;;;;96.57;34.97;;;;;;;4.66;83.58;102293.63;5095354;28;20381;-70
2022/01/16 03:45:03;;;;;;;84.78;34.25;;;;;;;4.45;85.17;102296.59;5095141;28;20039;-70
2022/01/16 03:47:28;;;;;;;95.60;35.90;;;;;;;4.64;84.73;102290.28;5095412;28;20030;-70
2022/01/16 03:49:54;;;;;;;91.07;33.67;;;;;;;4.68;84.54;102280.19;5094959;28;20466;-69
2022/01/16 03:52:25;;;;;;;93.03;35.38;;;;;;;4.69;84.24;102273.84;5077848;28;20090;-71
2022/01/16 03:54:51;;;;;;;92.03;33.67;;;;;;;4.78;83.80;102272.94;5074505;28;20086;-69
2022/01/16 03:57:17;;;;;;;106.30;37.15;;;;;;;5.04;82.52;102269.34;5074270;28;20040;-70
2022/01/16 03:59:42;;;;;;;98.95;36.80;;;;;;;4.66;83.89;102272.31;5074928;28;20211;-69
2022/01/16 04:02:08;;;;;;;98.72;36.67;;;;;;;4.79;84.05;102277.28;5074332;28;20045;-70
2022/01/16 04:04:33;;;;;;;107.05;38.10;;;;;;;4.65;84.01;102281.31;5074377;28;20550;-70
2022/01/16 04:07:01;;;;;;;96.82;33.70;;;;;;;4.76;84.26;102290.88;5074198;28;20044;-72
2022/01/16 04:09:27;;;;;;;93.18;36.35;;;;;;;4.72;84.17;102286.88;5073773;28;20115;-70
2022/01/16 04:11:56;;;;;;;102.97;34.03;;;;;;;4.68;84.04;102277.53;5074394;28;20071;-70
2022/01/16 04:17:16;;;;;;;98.55;34.97;;;;;;;4.96;82.98;102279.94;5031660;28;20540;-70
2022/01/16 04:19:42;;;;;;;93.18;34.08;;;;;;;4.81;83.63;102273.50;5032095;28;20048;-70
2022/01/16 04:22:08;;;;;;;92.35;34.55;;;;;;;4.86;83.80;102273.00;5031866;28;20119;-70
2022/01/16 04:24:34;;;;;;;104.63;37.70;;;;;;;4.81;83.66;102270.81;5031684;28;20033;-71
2022/01/16 04:27:00;;;;;;;93.47;34.72;;;;;;;4.91;83.86;102260.09;5031587;28;20080;-71
2022/01/16 04:29:25;;;;;;;98.57;36.10;;;;;;;4.90;83.56;102258.41;5032368;28;20073;-72
2022/01/16 04:31:50;;;;;;;98.25;36.50;;;;;;;4.94;83.16;102262.44;5031613;28;20055;-71
2022/01/16 04:34:16;;;;;;;85.85;32.90;;;;;;;4.89;82.61;102259.41;5031726;28;20537;-71
2022/01/16 04:36:42;;;;;;;89.43;33.65;;;;;;;4.88;83.53;102255.06;5031309;28;20136;-70
2022/01/16 04:39:12;;;;;;;97.70;36.75;;;;;;;5.16;82.22;102264.63;5031196;28;20046;-70
2022/01/16 04:44:22;;;;;;;102.78;34.40;;;;;;;5.13;82.85;102273.75;5031568;28;20080;-71
2022/01/16 04:46:48;;;;;;;105.72;38.00;;;;;;;5.13;82.25;102259.59;5031452;28;20491;-71
2022/01/16 04:49:13;;;;;;;103.32;35.85;;;;;;;5.25;82.48;102256.53;5031403;28;20386;-70
2022/01/16 04:51:39;;;;;;;97.82;35.20;;;;;;;5.19;82.17;102264.28;5041588;28;20037;-71
2022/01/16 04:54:04;;;;;;;105.63;35.92;;;;;;;5.32;81.65;102254.91;5063723;28;20064;-70
2022/01/16 04:56:30;;;;;;;94.22;36.40;;;;;;;5.05;82.74;102257.69;5093889;28;20043;-70
2022/01/16 04:58:55;;;;;;;103.53;35.45;;;;;;;5.11;83.33;102256.25;5093268;28;20039;-70
2022/01/16 05:01:21;;;;;;;102.38;37.03;;;;;;;5.23;82.15;102258.50;5086516;28;20044;-70
2022/01/16 05:03:46;;;;;;;113.53;38.40;;;;;;;5.06;82.66;102256.72;5072809;28;20499;-71
2022/01/16 05:06:12;;;;;;;108.32;36.58;;;;;;;5.13;82.91;102252.44;5081901;28;20040;-71
2022/01/16 05:08:38;;;;;;;98.80;35.13;;;;;;;4.99;83.64;102254.84;5092725;28;20080;-70
2022/01/16 05:11:07;;;;;;;101.80;37.33;;;;;;;5.14;82.92;102250.59;5092864;28;20388;-71
2022/01/16 05:18:45;;;;;;;99.45;37.50;;;;;;;5.18;82.59;102220.00;5093101;28;20395;-70
2022/01/16 05:21:11;;;;;;;100.00;36.03;;;;;;;5.22;82.89;102221.34;5092838;28;20039;-70
2022/01/16 05:23:37;;;;;;;99.55;37.35;;;;;;;5.30;82.42;102216.94;5093611;28;20111;-70
2022/01/16 05:26:05;;;;;;;104.60;37.80;;;;;;;5.47;81.76;102214.34;5092747;28;20042;-70
2022/01/16 05:28:31;;;;;;;92.68;34.80;;;;;;;5.22;82.98;102211.53;5093052;28;20145;-71
2022/01/16 05:30:57;;;;;;;100.82;36.67;;;;;;;5.23;83.33;102215.88;5092795;28;20189;-70
2022/01/16 05:33:22;;;;;;;101.10;38.22;;;;;;;5.25;83.05;102205.88;5092913;28;20438;-71
2022/01/16 05:35:48;;;;;;;99.70;36.90;;;;;;;5.44;82.33;102209.34;5093415;28;20040;-70
2022/01/16 05:38:13;;;;;;;92.93;33.33;;;;;;;5.01;84.06;102204.91;5092751;28;20054;-71
2022/01/16 05:40:40;;;;;;;102.15;35.65;;;;;;;5.11;83.67;102224.28;5092747;28;20048;-70
2022/01/16 05:43:06;;;;;;;102.43;37.85;;;;;;;5.18;83.07;102223.50;5092945;28;20548;-70
2022/01/16 05:45:32;;;;;;;106.55;36.80;;;;;;;5.25;83.29;102227.22;5091851;28;20089;-70
2022/01/16 05:47:57;;;;;;;94.63;36.22;;;;;;;5.15;83.00;102221.13;5093126;28;20016;-69
2022/01/16 05:50:23;;;;;;;99.22;37.47;;;;;;;5.33;83.58;102224.59;5093103;28;20040;-70
2022/01/16 05:52:50;;;;;;;104.78;36.45;;;;;;;5.21;83.79;102231.19;5092462;28;20043;-70
2022/01/16 05:55:17;;;;;;;104.05;36.50;;;;;;;5.19;83.84;102226.97;5092487;28;20123;-70
2022/01/16 05:57:43;;;;;;;105.93;37.60;;;;;;;5.15;83.74;102228.31;5092486;28;20111;-70
2022/01/16 06:00:10;;;;;;;101.60;37.00;;;;;;;5.31;83.41;102220.41;5092518;28;20081;-70
2022/01/16 06:02:35;;;;;;;97.68;37.67;;;;;;;5.40;82.85;102222.16;5092926;28;20422;-72
2022/01/16 06:05:02;;;;;;;102.00;37.25;;;;;;;5.44;83.51;102226.16;5092357;28;20186;-71
2022/01/16 06:07:27;;;;;;;103.60;36.67;;;;;;;5.51;83.31;102218.34;5092316;28;20040;-70
2022/01/16 06:09:53;;;;;;;104.50;36.17;;;;;;;5.54;83.27;102220.72;5073549;28;20487;-69
2022/01/16 06:12:19;;;;;;;99.55;34.05;;;;;;;5.27;84.24;102213.72;5092606;28;20032;-70
2022/01/16 06:14:44;;;;;;;102.88;38.78;;;;;;;5.40;84.04;102227.47;5092783;28;20040;-70
2022/01/16 06:17:10;;;;;;;94.95;36.50;;;;;;;5.31;84.01;102226.59;5092487;28;20036;-69
2022/01/16 06:19:35;;;;;;;100.32;39.22;;;;;;;5.19;84.78;102217.16;5092401;28;20123;-71
2022/01/16 06:22:02;;;;;;;109.22;37.17;;;;;;;5.20;84.82;102224.19;5092332;28;20054;-71
2022/01/16 06:24:27;;;;;;;105.30;39.38;;;;;;;5.39;84.67;102228.44;5092239;28;20119;-71
2022/01/16 06:26:53;;;;;;;109.03;39.00;;;;;;;5.56;84.08;102222.25;5092336;28;20099;-71
2022/01/16 06:29:19;;;;;;;106.43;39.65;;;;;;;5.63;83.01;102209.94;5092858;28;20034;-71
2022/01/16 06:31:44;;;;;;;107.32;38.65;;;;;;;5.65;83.45;102223.94;5092175;28;20086;-70
2022/01/16 06:34:10;;;;;;;96.20;35.65;;;;;;;5.55;83.61;102228.56;5092105;28;20075;-71
2022/01/16 06:36:36;;;;;;;109.70;40.30;;;;;;;5.53;84.52;102224.38;5091831;28;20050;-71
2022/01/16 06:39:06;;;;;;;106.82;37.53;;;;;;;5.17;86.29;102234.28;5091821;28;20036;-69
2022/01/16 06:41:33;;;;;;;97.22;39.20;;;;;;;5.42;85.13;102233.50;5092552;28;20097;-70
2022/01/16 06:43:58;;;;;;;100.32;38.45;;;;;;;5.59;85.37;102237.91;5092211;28;20078;-70
2022/01/16 06:46:24;;;;;;;97.45;39.70;;;;;;;5.70;84.45;102239.47;5091886;28;20036;-70
2022/01/16 06:48:50;;;;;;;84.63;35.17;;;;;;;5.42;85.96;102232.63;5092175;28;20098;-72
2022/01/16 06:51:20;;;;;;;108.45;41.42;;;;;;;5.62;84.83;102248.25;5091970;28;20456;-70
2022/01/16 06:53:47;;;;;;;98.20;37.50;;;;;;;5.71;83.93;102247.31;5092139;28;20102;-70
2022/01/16 06:56:15;;;;;;;96.22;37.92;;;;;;;5.80;84.74;102240.16;5094105;28;20039;-70
2022/01/16 06:58:40;;;;;;;103.32;38.67;;;;;;;5.84;84.55;102238.88;5095968;28;20422;-72
2022/01/16 07:01:06;;;;;;;101.20;39.90;;;;;;;5.99;83.52;102254.16;5095815;28;20173;-71
2022/01/16 07:03:31;;;;;;;94.50;39.63;;;;;;;5.99;83.61;102254.16;5077365;28;20032;-69
2022/01/16 07:05:57;;;;;;;95.00;39.65;;;;;;;6.00;83.65;102265.63;5095427;28;20031;-71
2022/01/16 07:08:26;;;;;;;91.88;38.17;;;;;;;5.77;85.17;102259.16;5095644;28;20119;-71
2022/01/16 07:10:52;;;;;;;92.80;37.40;;;;;;;5.86;84.42;102248.41;5095381;28;20399;-71
2022/01/16 07:13:17;;;;;;;105.20;41.25;;;;;;;5.85;83.84;102265.41;5095475;28;20446;-70
2022/01/16 07:15:43;;;;;;;100.55;39.63;;;;;;;5.79;84.94;102263.34;5076680;28;20032;-71
2022/01/16 07:18:08;;;;;;;89.68;38.58;;;;;;;5.94;83.93;102266.28;5095189;28;20043;-70
2022/01/16 07:20:34;;;;;;;89.85;37.38;;;;;;;6.06;83.74;102273.00;5095840;28;20031;-70
2022/01/16 07:22:59;;;;;;;98.35;37.78;;;;;;;5.83;84.97;102282.53;5095444;28;20046;-71
2022/01/16 07:25:25;;;;;;;86.45;37.65;;;;;;;5.90;84.11;102284.44;5094955;28;20121;-69
2022/01/16 07:27:50;;;;;;;95.68;40.88;;;;;;;5.93;83.90;102288.63;5095207;28;20119;-70
2022/01/16 07:30:15;;;;;;;96.65;37.78;;;;;;;5.93;84.52;102299.28;5095324;28;20536;-70
2022/01/16 07:32:41;;;;;;;88.53;39.47;;;;;;;5.82;84.85;102299.50;5076951;28;20085;-70
2022/01/16 07:35:07;;;;;;;87.32;38.85;;;;;;;5.91;84.24;102296.78;5086485;28;20502;-70
2022/01/16 07:37:32;;;;;;;77.85;37.10;;;;;;;5.99;83.94;102302.16;5094956;28;20037;-71
2022/01/16 07:39:58;;;;;;;88.35;37.75;;;;;;;5.97;84.11;102300.66;5076520;28;20135;-71
2022/01/16 07:42:23;;;;;;;92.72;39.88;;;;;;;6.06;83.63;102299.69;5094611;28;20035;-69
2022/01/16 07:44:49;;;;;;;84.03;37.20;;;;;;;6.10;83.65;102301.88;5094282;28;20419;-68
2022/01/16 07:47:14;;;;;;;83.30;34.85;;;;;;;5.96;84.05;102309.63;5095362;28;20108;-70
2022/01/16 07:49:40;;;;;;;83.15;35.17;;;;;;;5.89;84.64;102312.13;5076194;28;20128;-70
2022/01/16 07:52:05;;;;;;;83.63;37.22;;;;;;;6.09;83.98;102310.06;5094437;28;20040;-70
2022/01/16 07:54:31;;;;;;;80.95;37.40;;;;;;;6.21;83.29;102311.44;5094511;28;20120;-69
2022/01/16 07:56:56;;;;;;;88.53;37.55;;;;;;;6.17;83.73;102315.44;5094530;28;20036;-70
2022/01/16 07:59:21;;;;;;;83.53;37.25;;;;;;;5.88;83.89;102312.25;5095154;28;20166;-71
2022/01/16 08:01:47;;;;;;;85.95;36.55;;;;;;;6.14;83.59;102313.06;5093861;28;20111;-71
2022/01/16 08:04:12;;;;;;;87.55;37.88;;;;;;;6.02;83.11;102322.34;5076456;28;20463;-70
2022/01/16 08:06:38;;;;;;;98.43;40.95;;;;;;;6.08;83.85;102327.88;5093727;28;20036;-70
2022/01/16 08:09:03;;;;;;;81.95;38.15;;;;;;;5.94;84.05;102317.81;5094048;28;20023;-72
2022/01/16 08:11:28;;;;;;;80.72;34.97;;;;;;;5.84;84.08;102326.91;5094536;28;20036;-70
2022/01/16 08:13:54;;;;;;;89.13;36.50;;;;;;;5.86;84.54;102317.75;5094836;28;20047;-69
2022/01/16 08:16:19;;;;;;;90.75;37.75;;;;;;;5.91;83.82;102315.47;5093597;28;20123;-69
2022/01/16 08:18:45;;;;;;;86.15;38.03;;;;;;;5.97;83.46;102320.16;5089560;28;20447;-71
2022/01/16 08:21:10;;;;;;;70.35;36.13;;;;;;;5.92;84.27;102311.78;5074169;28;20127;-71
2022/01/16 08:23:35;;;;;;;86.78;39.28;;;;;;;5.90;84.02;102307.59;5092804;28;20021;-70
2022/01/16 08:26:04;;;;;;;86.68;37.13;;;;;;;5.85;84.46;102305.44;5092119;28;20048;-70
2022/01/16 08:28:29;;;;;;;84.40;36.95;;;;;;;5.78;84.61;102314.19;5092123;28;20495;-70
2022/01/16 08:30:55;;;;;;;82.13;37.67;;;;;;;5.85;84.86;102307.25;5092165;28;20043;-71
2022/01/16 08:33:20;;;;;;;77.88;36.65;;;;;;;5.96;84.24;102306.97;5091989;28;20036;-70
2022/01/16 08:35:46;;;;;;;75.32;36.92;;;;;;;5.94;83.71;102308.94;5074367;28;20036;-70
2022/01/16 08:38:11;;;;;;;82.15;38.17;;;;;;;6.06;83.74;102316.53;5091734;28;20032;-70
2022/01/16 08:40:37;;;;;;;74.07;33.17;;;;;;;6.12;83.14;102317.72;5091835;28;20079;-69
2022/01/16 08:43:08;;;;;;;70.28;36.25;;;;;;;6.30;82.54;102312.28;5091776;28;20495;-69
2022/01/16 08:45:35;;;;;;;71.55;37.67;;;;;;;6.23;82.57;102310.25;5091708;28;20040;-71
2022/01/16 08:48:01;;;;;;;74.20;35.25;;;;;;;6.17;83.10;102318.09;5091887;28;20074;-69
2022/01/16 08:50:27;;;;;;;71.07;33.90;;;;;;;6.33;82.41;102311.97;5091893;28;20020;-71
2022/01/16 08:52:53;;;;;;;66.32;33.70;;;;;;;6.19;82.86;102314.25;5089051;28;20484;-71
2022/01/16 08:55:18;;;;;;;71.72;33.33;;;;;;;6.31;82.65;102312.13;5091049;28;20046;-69
2022/01/16 08:57:43;;;;;;;69.53;34.72;;;;;;;6.03;83.77;102313.34;5090843;28;20131;-70
2022/01/16 09:00:10;;;;;;;64.70;35.08;;;;;;;6.60;81.15;102317.06;5090898;28;20555;-70
2022/01/16 09:02:35;;;;;;;69.95;33.97;;;;;;;6.57;81.60;102304.03;5091450;28;20378;-70
2022/01/16 09:05:03;;;;;;;67.20;32.20;;;;;;;6.56;81.40;102321.06;5090782;28;20032;-70
2022/01/16 09:07:28;;;;;;;65.22;31.90;;;;;;;6.67;80.72;102323.41;5088561;28;20039;-70
2022/01/16 09:09:53;;;;;;;62.65;32.65;;;;;;;6.76;81.34;102320.59;5089542;28;20036;-70
2022/01/16 09:12:19;;;;;;;55.00;31.52;;;;;;;6.47;81.53;102322.00;5088820;28;20391;-70
2022/01/16 09:14:45;;;;;;;59.67;30.92;;;;;;;6.56;81.35;102318.38;5090270;28;20527;-70
2022/01/16 09:17:10;;;;;;;61.45;31.10;;;;;;;6.61;81.45;102316.06;5090485;28;20071;-72
2022/01/16 09:19:36;;;;;;;57.38;28.88;;;;;;;6.67;81.35;102320.75;5089739;28;20547;-71
2022/01/16 09:22:01;;;;;;;59.22;28.25;;;;;;;6.64;81.33;102321.94;5090709;28;20100;-72
2022/01/16 09:24:26;;;;;;;54.13;28.45;;;;;;;6.74;80.52;102324.44;5090788;28;20169;-71
2022/01/16 09:26:54;;;;;;;49.30;27.98;;;;;;;6.86;80.50;102321.28;5090976;28;20522;-73
2022/01/16 09:29:21;;;;;;;50.20;23.60;;;;;;;6.88;80.23;102329.97;5089596;28;20053;-70
2022/01/16 09:31:46;;;;;;;48.03;25.33;;;;;;;7.09;79.57;102333.00;5086437;28;20071;-71
2022/01/16 09:34:12;;;;;;;53.58;27.27;;;;;;;7.11;79.51;102338.19;5085476;28;20478;-72
2022/01/16 09:36:38;;;;;;;53.70;27.77;;;;;;;7.18;78.68;102339.19;5090427;28;20043;-70
2022/01/16 09:39:03;;;;;;;41.78;22.80;;;;;;;7.20;78.53;102339.00;5090686;28;20076;-71
2022/01/16 09:41:29;;;;;;;42.97;22.02;;;;;;;7.11;78.87;102343.53;5089793;28;20498;-70
2022/01/16 09:43:55;;;;;;;45.67;22.17;;;;;;;7.23;78.13;102349.38;5083213;28;20492;-71
2022/01/16 09:46:20;;;;;;;39.90;20.73;;;;;;;7.23;77.85;102352.91;5065655;28;20040;-71
2022/01/16 09:48:45;;;;;;;29.00;18.85;;;;;;;7.35;77.69;102356.91;5088533;28;20034;-71
2022/01/16 09:51:11;;;;;;;40.92;20.63;;;;;;;7.57;77.01;102358.06;5090016;28;20110;-70
2022/01/16 09:53:41;;;;;;;37.05;20.75;;;;;;;7.60;76.71;102352.38;5089651;28;20020;-70
2022/01/16 09:56:07;;;;;;;32.90;17.48;;;;;;;7.66;76.12;102355.22;5086512;28;20345;-71
2022/01/16 09:58:34;;;;;;;32.75;16.90;;;;;;;7.37;76.79;102346.06;5088533;28;20041;-72
2022/01/16 10:00:59;;;;;;;31.58;17.83;;;;;;;7.49;76.41;102363.44;5081865;28;20032;-70
2022/01/16 10:03:34;;;;;;;28.45;17.88;;;;;;;7.33;77.55;102371.47;5083497;28;20124;-70
2022/01/16 10:06:21;;;;;;;29.55;15.93;;;;;;;7.59;76.23;102370.28;5079315;28;20411;-70
2022/01/16 10:08:48;;;;;;;30.52;16.27;;;;;;;7.72;75.43;102369.78;5082602;28;20101;-70
2022/01/16 10:11:37;;;;;;;32.17;15.68;;;;;;;7.76;75.48;102369.25;5072025;28;20410;-71
2022/01/16 10:14:22;;;;;;;27.40;15.77;;;;;;;7.76;75.88;102376.44;5079746;28;20399;-71
2022/01/16 10:16:49;;;;;;;22.00;14.68;;;;;;;7.90;75.20;102381.94;5073160;28;20033;-69
2022/01/16 10:19:34;;;;;;;27.73;16.58;;;;;;;7.78;75.58;102380.59;5092108;28;20491;-69
2022/01/16 10:22:05;;;;;;;28.25;14.75;;;;;;;7.92;74.95;102384.47;5090426;28;20036;-70
2022/01/16 10:24:34;;;;;;;27.95;16.38;;;;;;;7.83;75.30;102380.97;5089651;28;20040;-71
2022/01/16 10:27:09;;;;;;;26.20;16.88;;;;;;;7.86;75.17;102377.13;5091601;28;20054;-70
2022/01/16 10:29:39;;;;;;;30.50;16.77;;;;;;;8.11;74.83;102369.84;5087959;28;20024;-71
2022/01/16 10:32:15;;;;;;;28.75;16.13;;;;;;;8.03;75.22;102378.75;5097157;28;20032;-70
2022/01/16 10:34:42;;;;;;;26.63;15.35;;;;;;;7.83;75.90;102372.94;5092900;28;20040;-70
2022/01/16 10:37:25;;;;;;;29.05;15.80;;;;;;;8.02;75.05;102377.06;5095342;28;20049;-70
2022/01/16 10:39:55;;;;;;;26.70;14.90;;;;;;;7.96;75.56;102372.38;5090838;28;20096;-72
2022/01/16 10:42:20;;;;;;;28.42;15.40;;;;;;;6.99;79.30;102368.91;5074616;28;20052;-71
2022/01/16 10:44:46;;;;;;;29.90;15.63;;;;;;;7.90;76.15;102373.91;5095749;28;20124;-71
2022/01/16 10:47:31;;;;;;;24.23;15.65;;;;;;;7.96;75.78;102367.88;5094982;28;20089;-70
2022/01/16 10:50:01;;;;;;;24.98;16.38;;;;;;;8.11;75.20;102370.69;5096070;28;20129;-70
2022/01/16 10:52:26;;;;;;;35.63;19.77;;;;;;;8.05;75.42;102370.53;5092507;28;20503;-70
2022/01/16 10:54:51;;;;;;;27.38;13.90;;;;;;;8.04;75.19;102368.88;5096314;28;20047;-71
2022/01/16 10:57:27;;;;;;;23.63;12.38;;;;;;;7.86;76.10;102369.09;5096467;28;20039;-72
2022/01/16 11:00:13;;;;;;;21.52;12.32;;;;;;;8.18;74.55;102381.53;5098434;28;20436;-69
2022/01/16 11:02:41;;;;;;;18.73;12.45;;;;;;;8.21;75.38;102383.88;5098285;28;20028;-71
2022/01/16 11:05:13;;;;;;;23.23;12.18;;;;;;;8.17;75.04;102386.06;5095077;28;20036;-71
2022/01/16 11:07:39;;;;;;;23.95;12.10;;;;;;;8.56;74.22;102378.94;5095083;28;20503;-69
2022/01/16 11:10:37;;;;;;;17.90;12.88;;;;;;;8.47;74.63;102379.94;5094361;28;20065;-71
2022/01/16 11:13:05;;;;;;;20.48;12.98;;;;;;;8.49;74.59;102380.63;5018095;28;20120;-70
2022/01/16 11:15:32;;;;;;;22.20;13.15;;;;;;;8.46;74.62;102383.66;5023214;28;20052;-70
2022/01/16 11:17:58;;;;;;;17.85;10.75;;;;;;;8.41;74.84;102377.16;5020950;28;20038;-70
2022/01/16 11:20:31;;;;;;;21.20;11.20;;;;;;;8.48;74.82;102381.63;5022995;28;20033;-72
2022/01/16 11:23:04;;;;;;;25.30;11.05;;;;;;;8.58;74.27;102386.78;5023086;28;20061;-70
2022/01/16 11:25:36;;;;;;;19.90;9.95;;;;;;;8.65;74.52;102385.06;5022197;28;20067;-71
2022/01/16 11:28:05;;;;;;;15.82;9.18;;;;;;;8.50;74.85;102379.63;5018018;28;20083;-71
2022/01/16 11:30:32;;;;;;;21.40;8.93;;;;;;;8.57;75.06;102377.09;5021803;28;20038;-71
2022/01/16 11:32:59;;;;;;;18.42;9.45;;;;;;;8.68;74.58;102387.41;5020896;28;20379;-70
2022/01/16 11:35:26;;;;;;;19.38;10.23;;;;;;;8.96;74.40;102385.09;5014201;28;20069;-71
2022/01/16 11:37:52;;;;;;;23.25;11.95;;;;;;;8.38;75.78;102398.91;5015289;28;20177;-72
2022/01/16 11:40:27;;;;;;;24.50;12.82;;;;;;;8.41;76.83;102402.06;5014540;28;20042;-70
2022/01/16 11:43:34;;;;;;;20.90;13.27;;;;;;;8.39;76.94;102400.59;5016797;28;20045;-70
2022/01/16 11:46:13;;;;;;;19.60;13.52;;;;;;;8.39;76.58;102406.75;5012364;28;20179;-69
2022/01/16 11:48:42;;;;;;;28.85;14.80;;;;;;;8.28;76.85;102407.16;5017375;28;20048;-71
2022/01/16 11:51:32;;;;;;;19.20;11.80;;;;;;;8.38;77.02;102405.13;5085442;28;20084;-69
2022/01/16 11:54:15;;;;;;;15.88;10.40;;;;;;;8.19;77.47;102402.81;5102001;28;20027;-71
2022/01/16 11:56:41;;;;;;;23.08;12.18;;;;;;;8.39;76.87;102405.94;5105917;28;20090;-71
2022/01/16 11:59:13;;;;;;;18.02;11.63;;;;;;;8.44;76.49;102392.88;5074537;28;20092;-71
2022/01/16 12:01:47;;;;;;;17.70;11.10;;;;;;;8.28;77.32;102396.44;5071476;28;20168;-69
2022/01/16 12:04:31;;;;;;;19.50;12.90;;;;;;;8.19;77.72;102396.59;5093232;28;20546;-69
2022/01/16 12:07:13;;;;;;;15.98;10.20;;;;;;;8.21;77.81;102402.63;5092604;28;20062;-70
2022/01/16 12:09:57;;;;;;;20.42;12.88;;;;;;;8.88;75.64;102393.16;5090595;28;20044;-70
2022/01/16 12:12:22;;;;;;;19.23;13.15;;;;;;;8.58;76.60;102394.81;5093426;28;20048;-70